Time;durP1;ratioP1;P1;durP2;ratioP2;P2;SDS_P1;SDS_P2;PMS_P1;PMS_P2;Temp;Humidity;BMP_temperature;BMP_pressure;BME280_temperature;BME280_humidity;BME280_pressure;Samples;Min_cycle;Max_cycle;Signal;HPM_P1;HPM_P2
2021/08/24 00:00:13;;;;;;;3.00;2.70;;;17.50;99.90;;;;;;5033018;28;20560;-80
2021/08/24 00:02:38;;;;;;;4.07;2.90;;;17.50;99.90;;;;;;5016348;28;20619;-80
2021/08/24 00:05:06;;;;;;;3.57;3.27;;;17.50;99.90;;;;;;5033823;28;21112;-80
2021/08/24 00:07:32;;;;;;;3.03;2.73;;;17.50;99.90;;;;;;5034050;28;20248;-80
2021/08/24 00:09:58;;;;;;;3.93;3.10;;;17.40;99.90;;;;;;5033943;28;20668;-80
2021/08/24 00:12:23;;;;;;;2.70;2.50;;;17.40;99.90;;;;;;5033993;28;20189;-80
2021/08/24 00:14:49;;;;;;;3.27;2.50;;;17.40;99.90;;;;;;5015869;28;20194;-80
2021/08/24 00:17:15;;;;;;;2.90;2.60;;;17.40;99.90;;;;;;5016752;28;20185;-80
2021/08/24 00:19:40;;;;;;;3.57;2.67;;;17.30;99.90;;;;;;5034266;28;20244;-80
2021/08/24 00:22:07;;;;;;;3.60;2.80;;;17.30;99.90;;;;;;5034700;28;20173;-80
2021/08/24 00:24:33;;;;;;;3.10;2.50;;;17.30;99.90;;;;;;5034901;28;20568;-80
2021/08/24 00:26:59;;;;;;;4.03;2.90;;;17.20;99.90;;;;;;5034999;28;20623;-80
2021/08/24 00:29:25;;;;;;;3.40;2.20;;;17.20;99.90;;;;;;5001205;28;20256;-80
2021/08/24 00:31:50;;;;;;;3.73;2.57;;;17.20;99.90;;;;;;5022182;28;20252;-80
2021/08/24 00:34:16;;;;;;;2.53;2.07;;;17.10;99.90;;;;;;5034033;28;20253;-80
2021/08/24 00:36:42;;;;;;;2.37;2.10;;;17.10;99.90;;;;;;5034321;28;20186;-80
2021/08/24 00:39:07;;;;;;;4.73;2.53;;;17.10;99.90;;;;;;5017676;28;20162;-80
2021/08/24 00:41:36;;;;;;;4.23;2.87;;;17.00;99.90;;;;;;5035159;28;20174;-80
2021/08/24 00:44:03;;;;;;;3.20;2.53;;;17.00;99.90;;;;;;5034685;28;20181;-80
2021/08/24 00:46:37;;;;;;;3.23;2.27;;;17.00;99.90;;;;;;5033722;28;20593;-81
2021/08/24 00:49:13;;;;;;;3.87;1.87;;;17.00;99.90;;;;;;5033508;28;20563;-80
2021/08/24 00:51:42;;;;;;;2.97;1.93;;;17.00;99.90;;;;;;5033547;28;20707;-80
2021/08/24 00:54:13;;;;;;;3.03;2.20;;;16.90;99.90;;;;;;5034209;28;20580;-80
2021/08/24 00:56:42;;;;;;;2.07;1.83;;;16.90;99.90;;;;;;5034144;28;20651;-80
2021/08/24 00:59:08;;;;;;;5.30;2.33;;;16.90;99.90;;;;;;5033122;28;20946;-79
2021/08/24 01:01:34;;;;;;;3.97;2.00;;;16.90;99.90;;;;;;5032728;28;20569;-80
2021/08/24 01:04:00;;;;;;;2.43;1.70;;;16.90;99.90;;;;;;5033095;28;20573;-80
2021/08/24 01:06:33;;;;;;;2.50;1.97;;;16.80;99.90;;;;;;5035140;28;20268;-80
2021/08/24 01:09:04;;;;;;;2.43;1.40;;;16.80;99.90;;;;;;5038514;28;20576;-80
2021/08/24 01:11:37;;;;;;;2.40;1.83;;;16.80;99.90;;;;;;5033765;28;20616;-80
2021/08/24 01:14:27;;;;;;;2.30;1.60;;;16.80;99.90;;;;;;4999195;28;21007;-80
2021/08/24 01:17:08;;;;;;;2.50;1.63;;;16.80;99.90;;;;;;5033334;28;20596;-80
2021/08/24 01:20:15;;;;;;;1.93;1.57;;;16.80;99.90;;;;;;5033382;28;20952;-81
2021/08/24 01:23:09;;;;;;;3.20;1.47;;;16.70;99.90;;;;;;5015147;28;20675;-80
2021/08/24 01:25:41;;;;;;;2.37;1.30;;;16.70;99.90;;;;;;5032942;28;20592;-80
2021/08/24 01:28:20;;;;;;;5.17;2.20;;;16.70;99.90;;;;;;5033260;28;20557;-80
2021/08/24 01:31:04;;;;;;;2.40;1.60;;;16.70;99.90;;;;;;5015231;28;20615;-80
2021/08/24 01:33:38;;;;;;;2.10;1.43;;;16.70;99.90;;;;;;5016024;28;21255;-80
2021/08/24 01:36:10;;;;;;;3.43;1.70;;;16.60;99.90;;;;;;5000026;28;21205;-80
2021/08/24 01:38:49;;;;;;;2.93;2.50;;;16.60;99.90;;;;;;5015945;28;20614;-80
2021/08/24 01:41:32;;;;;;;2.30;1.60;;;16.60;99.90;;;;;;5015279;28;21143;-80
2021/08/24 01:44:11;;;;;;;2.83;1.20;;;16.60;99.90;;;;;;5032910;28;20576;-80
2021/08/24 01:46:55;;;;;;;3.10;1.53;;;16.60;99.90;;;;;;5018502;28;20698;-80
2021/08/24 01:49:26;;;;;;;1.80;1.57;;;16.50;99.90;;;;;;5032395;28;20711;-80
2021/08/24 01:51:56;;;;;;;1.90;1.30;;;16.50;99.90;;;;;;5014805;28;20723;-80
2021/08/24 01:54:28;;;;;;;2.70;1.20;;;16.50;99.90;;;;;;5036740;28;20568;-80
2021/08/24 01:56:56;;;;;;;2.00;1.33;;;16.50;99.90;;;;;;5032279;28;20595;-79
2021/08/24 01:59:30;;;;;;;4.80;1.80;;;16.50;99.90;;;;;;5032900;28;20576;-80
2021/08/24 02:02:11;;;;;;;1.80;1.53;;;16.40;99.90;;;;;;5033074;28;20556;-80
2021/08/24 02:04:50;;;;;;;1.83;1.10;;;16.40;99.90;;;;;;5032399;28;20595;-80
2021/08/24 02:07:18;;;;;;;1.90;1.27;;;16.40;99.90;;;;;;5032290;28;20616;-80
2021/08/24 02:09:47;;;;;;;2.17;1.17;;;16.50;99.90;;;;;;5032124;28;20580;-80
2021/08/24 02:12:15;;;;;;;3.40;1.40;;;16.50;99.90;;;;;;5034822;28;20624;-80
2021/08/24 02:14:42;;;;;;;3.40;1.90;;;16.50;99.90;;;;;;5019640;28;20569;-80
2021/08/24 02:17:10;;;;;;;2.67;1.43;;;16.60;99.90;;;;;;5018977;28;20643;-80
2021/08/24 02:19:48;;;;;;;2.20;1.50;;;16.60;99.90;;;;;;5037196;28;20568;-80
2021/08/24 02:22:19;;;;;;;3.00;1.77;;;16.70;99.90;;;;;;5037597;28;20584;-80
2021/08/24 02:24:54;;;;;;;3.27;1.33;;;16.70;99.90;;;;;;5035468;28;20572;-80
2021/08/24 02:27:26;;;;;;;2.33;1.50;;;16.80;99.90;;;;;;5031994;28;21140;-81
2021/08/24 02:29:56;;;;;;;1.60;1.10;;;16.80;99.90;;;;;;5031613;28;20578;-81
2021/08/24 02:32:29;;;;;;;2.40;1.60;;;16.90;99.90;;;;;;5031642;28;21094;-81
2021/08/24 02:35:31;;;;;;;2.10;1.43;;;17.00;99.90;;;;;;5013588;28;20573;-81
2021/08/24 02:38:02;;;;;;;2.73;1.60;;;17.10;99.90;;;;;;4989831;28;20596;-81
2021/08/24 02:40:47;;;;;;;2.10;1.53;;;17.10;99.90;;;;;;5031579;28;20984;-80
2021/08/24 02:43:19;;;;;;;2.47;1.73;;;17.20;99.90;;;;;;5031731;28;20563;-80
2021/08/24 02:46:03;;;;;;;3.30;1.50;;;17.20;99.90;;;;;;5031255;28;20603;-80
2021/08/24 02:48:32;;;;;;;2.03;1.10;;;17.30;99.90;;;;;;5034931;28;20897;-81
2021/08/24 02:50:58;;;;;;;2.20;1.30;;;17.30;99.90;;;;;;5034131;28;20620;-81
2021/08/24 02:53:27;;;;;;;2.07;1.70;;;17.30;99.90;;;;;;5034876;28;20568;-81
2021/08/24 02:55:53;;;;;;;2.20;1.40;;;17.40;99.90;;;;;;5033936;28;20611;-81
2021/08/24 02:58:19;;;;;;;2.17;1.63;;;17.40;99.90;;;;;;5035756;28;20580;-81
2021/08/24 03:00:47;;;;;;;5.10;1.90;;;17.40;99.90;;;;;;5032814;28;20577;-81
2021/08/24 03:03:14;;;;;;;1.80;1.00;;;17.40;99.90;;;;;;5017725;28;20186;-81
2021/08/24 03:05:39;;;;;;;1.97;1.43;;;17.40;99.90;;;;;;5034627;28;20723;-81
2021/08/24 03:08:06;;;;;;;1.90;1.40;;;17.40;99.90;;;;;;5035266;28;20659;-81
2021/08/24 03:10:35;;;;;;;2.50;1.60;;;17.40;99.90;;;;;;5035198;28;20976;-81
2021/08/24 03:13:16;;;;;;;2.33;2.10;;;17.40;99.90;;;;;;5034961;28;20573;-81
2021/08/24 03:15:46;;;;;;;2.47;1.90;;;17.40;99.90;;;;;;5034733;28;20596;-81
2021/08/24 03:18:23;;;;;;;2.67;1.43;;;17.40;99.90;;;;;;5034759;28;20580;-81
2021/08/24 03:20:54;;;;;;;2.30;1.70;;;17.30;99.90;;;;;;5034897;28;20587;-81
2021/08/24 03:23:21;;;;;;;3.63;1.87;;;17.30;99.90;;;;;;5034763;28;20568;-81
2021/08/24 03:25:49;;;;;;;2.00;1.77;;;17.20;99.90;;;;;;5034471;28;20673;-81
2021/08/24 03:28:19;;;;;;;2.70;1.70;;;17.20;99.90;;;;;;5034640;28;20934;-81
2021/08/24 03:30:45;;;;;;;2.60;2.17;;;17.10;99.90;;;;;;5034716;28;20674;-81
2021/08/24 03:33:13;;;;;;;2.20;1.77;;;17.00;99.90;;;;;;5034830;28;21161;-81
2021/08/24 03:35:39;;;;;;;2.10;1.20;;;17.00;99.90;;;;;;5037441;28;20695;-81
2021/08/24 03:38:06;;;;;;;2.00;1.63;;;16.90;99.90;;;;;;5016871;28;20573;-81
2021/08/24 03:40:32;;;;;;;3.23;1.47;;;16.80;99.90;;;;;;5034754;28;21091;-81
2021/08/24 03:42:59;;;;;;;5.47;2.53;;;16.80;99.90;;;;;;5034420;28;20564;-81
2021/08/24 03:45:27;;;;;;;2.53;1.80;;;16.70;99.90;;;;;;5034474;28;20599;-81
2021/08/24 03:47:52;;;;;;;6.60;2.00;;;16.60;99.90;;;;;;5016603;28;20580;-81
2021/08/24 03:50:19;;;;;;;2.27;1.40;;;16.60;99.90;;;;;;5016479;28;20635;-81
2021/08/24 03:52:45;;;;;;;1.60;1.30;;;16.50;99.90;;;;;;5034409;28;20210;-82
2021/08/24 03:55:11;;;;;;;3.10;2.90;;;16.50;99.90;;;;;;5033560;28;21166;-81
2021/08/24 03:57:37;;;;;;;3.27;1.50;;;16.40;99.90;;;;;;5034085;28;20665;-82
2021/08/24 04:00:04;;;;;;;3.27;1.80;;;16.40;99.90;;;;;;5034071;28;20905;-82
2021/08/24 04:02:38;;;;;;;3.70;1.27;;;16.30;99.90;;;;;;5034246;28;20622;-81
2021/08/24 04:05:04;;;;;;;4.00;2.17;;;16.30;99.90;;;;;;5033783;28;20568;-82
2021/08/24 04:07:32;;;;;;;2.80;1.47;;;16.30;99.90;;;;;;5034125;28;20596;-81
2021/08/24 04:09:57;;;;;;;1.90;1.20;;;16.20;99.90;;;;;;5033805;28;20568;-81
2021/08/24 04:12:24;;;;;;;2.50;1.50;;;16.20;99.90;;;;;;5036172;28;21294;-81
2021/08/24 04:14:51;;;;;;;4.37;1.50;;;16.10;99.90;;;;;;5033891;28;20178;-82
2021/08/24 04:17:17;;;;;;;3.30;1.50;;;16.10;99.90;;;;;;5033594;28;20607;-81
2021/08/24 04:19:43;;;;;;;2.13;1.40;;;16.10;99.90;;;;;;5033811;28;21185;-81
2021/08/24 04:22:11;;;;;;;3.93;1.87;;;16.00;99.90;;;;;;5033736;28;20569;-81
2021/08/24 04:24:38;;;;;;;2.57;1.70;;;16.00;99.90;;;;;;5015853;28;20654;-81
2021/08/24 04:27:04;;;;;;;2.53;1.63;;;15.90;99.90;;;;;;5033639;28;20624;-81
2021/08/24 04:29:30;;;;;;;4.50;1.60;;;15.90;99.90;;;;;;5033963;28;20580;-81
2021/08/24 04:31:58;;;;;;;1.90;1.40;;;15.80;99.90;;;;;;5033579;28;20631;-81
2021/08/24 04:34:24;;;;;;;1.60;1.10;;;15.80;99.90;;;;;;5032570;28;20572;-81
2021/08/24 04:36:50;;;;;;;2.17;1.43;;;15.80;99.90;;;;;;5033062;28;20941;-80
2021/08/24 04:39:16;;;;;;;2.00;1.47;;;15.80;99.90;;;;;;5033303;28;20579;-81
2021/08/24 04:41:41;;;;;;;2.03;1.57;;;15.70;99.90;;;;;;5033363;28;20166;-81
2021/08/24 04:44:07;;;;;;;4.53;1.17;;;15.70;99.90;;;;;;5033126;28;20569;-80
2021/08/24 04:46:33;;;;;;;2.10;1.33;;;15.70;99.90;;;;;;5015199;28;20217;-80
2021/08/24 04:48:58;;;;;;;2.07;1.30;;;15.70;99.90;;;;;;5018852;28;20193;-82
2021/08/24 04:51:24;;;;;;;2.00;1.20;;;15.70;99.90;;;;;;5035050;28;20205;-83
2021/08/24 04:53:50;;;;;;;4.03;1.33;;;15.70;99.90;;;;;;5032878;28;20172;-81
2021/08/24 04:56:15;;;;;;;2.17;1.30;;;15.70;99.90;;;;;;5032484;28;20530;-82
2021/08/24 04:58:41;;;;;;;4.80;1.70;;;15.70;99.90;;;;;;5015132;28;20573;-81
2021/08/24 05:01:07;;;;;;;2.50;1.60;;;15.70;99.90;;;;;;5015345;28;20853;-81
2021/08/24 05:03:33;;;;;;;2.37;1.13;;;15.70;99.90;;;;;;4998603;28;20268;-81
2021/08/24 05:05:58;;;;;;;3.73;2.20;;;15.70;99.90;;;;;;5032304;28;20197;-81
2021/08/24 05:08:24;;;;;;;2.83;1.50;;;15.70;99.90;;;;;;5032494;28;20174;-80
2021/08/24 05:10:50;;;;;;;2.80;1.30;;;15.80;99.90;;;;;;5032724;28;20220;-81
2021/08/24 05:13:15;;;;;;;1.77;1.10;;;15.80;99.90;;;;;;5032604;28;20165;-80
2021/08/24 05:15:42;;;;;;;2.70;1.23;;;15.80;99.90;;;;;;5031935;28;20185;-81
2021/08/24 05:18:08;;;;;;;3.70;1.50;;;15.80;99.90;;;;;;5032718;28;21193;-81
2021/08/24 05:20:33;;;;;;;4.50;1.57;;;15.90;99.90;;;;;;5014689;28;20304;-81
2021/08/24 05:22:59;;;;;;;1.60;1.20;;;15.90;99.90;;;;;;5034196;28;20592;-81
2021/08/24 05:25:26;;;;;;;1.80;1.00;;;16.00;99.90;;;;;;5047640;28;20169;-79
2021/08/24 05:27:52;;;;;;;2.60;1.33;;;16.00;99.90;;;;;;5032237;28;20224;-80
2021/08/24 05:30:24;;;;;;;3.77;1.27;;;16.10;99.90;;;;;;5051872;28;20575;-80
2021/08/24 05:32:51;;;;;;;3.60;1.30;;;16.10;99.90;;;;;;5052458;28;20536;-80
2021/08/24 05:35:18;;;;;;;2.77;1.40;;;16.20;99.90;;;;;;5034424;28;20663;-80
2021/08/24 05:37:44;;;;;;;2.47;1.50;;;16.20;99.90;;;;;;5052213;28;20571;-80
2021/08/24 05:40:11;;;;;;;3.13;1.57;;;16.30;99.90;;;;;;5051730;28;20659;-80
2021/08/24 05:42:37;;;;;;;1.50;1.00;;;16.30;99.90;;;;;;5051924;28;20560;-80
2021/08/24 05:45:05;;;;;;;1.83;1.20;;;16.50;99.90;;;;;;5052260;28;20560;-84
2021/08/24 05:47:31;;;;;;;2.67;1.20;;;16.50;99.90;;;;;;5052526;28;20694;-83
2021/08/24 05:49:59;;;;;;;2.43;1.27;;;16.60;99.90;;;;;;5052523;28;20634;-85
2021/08/24 05:52:25;;;;;;;3.10;1.33;;;16.60;99.90;;;;;;5033462;28;21378;-86
2021/08/24 05:54:51;;;;;;;3.00;1.37;;;16.70;99.90;;;;;;5052434;28;20575;-87
2021/08/24 05:57:17;;;;;;;1.57;0.93;;;16.80;99.90;;;;;;5053925;28;20694;-89
2021/08/24 05:59:43;;;;;;;1.73;1.20;;;16.80;99.90;;;;;;5034784;28;20184;-89
2021/08/24 06:02:09;;;;;;;1.43;1.00;;;16.90;99.90;;;;;;5051475;28;20576;-87
2021/08/24 06:04:35;;;;;;;2.87;1.23;;;17.00;99.90;;;;;;5056180;28;20578;-87
2021/08/24 06:07:03;;;;;;;3.83;1.40;;;17.10;99.90;;;;;;5034034;28;20587;-87
2021/08/24 06:09:29;;;;;;;2.47;0.90;;;17.10;99.90;;;;;;5035791;28;20912;-87
2021/08/24 06:11:54;;;;;;;2.00;1.20;;;17.20;99.90;;;;;;5056524;28;20642;-86
2021/08/24 06:14:22;;;;;;;1.73;0.97;;;17.30;99.90;;;;;;5021082;28;20216;-86
2021/08/24 06:16:54;;;;;;;2.47;0.90;;;17.40;99.90;;;;;;5034236;28;20700;-86
2021/08/24 06:19:21;;;;;;;2.00;1.20;;;17.50;99.90;;;;;;5053915;28;21126;-86
2021/08/24 06:21:47;;;;;;;1.97;1.37;;;17.60;99.90;;;;;;5053083;28;20633;-85
2021/08/24 06:24:13;;;;;;;2.50;1.60;;;17.70;99.90;;;;;;5051911;28;20583;-86
2021/08/24 06:26:41;;;;;;;2.33;1.20;;;17.80;99.90;;;;;;5052132;28;21272;-86
2021/08/24 06:29:07;;;;;;;2.10;1.13;;;18.00;99.90;;;;;;5051622;28;20582;-85
2021/08/24 06:31:38;;;;;;;2.93;1.20;;;18.10;99.90;;;;;;5053276;28;20624;-85
2021/08/24 06:34:06;;;;;;;5.33;2.10;;;18.50;99.90;;;;;;5051599;28;20575;-86
2021/08/24 06:36:32;;;;;;;1.50;0.90;;;19.30;99.90;;;;;;5054020;28;20607;-86
2021/08/24 06:38:57;;;;;;;2.20;1.10;;;20.30;99.90;;;;;;5058297;28;20621;-87
2021/08/24 06:41:24;;;;;;;1.97;0.80;;;21.40;99.90;;;;;;5081922;28;21002;-83
2021/08/24 06:43:50;;;;;;;2.40;1.20;;;22.50;99.90;;;;;;5053084;28;20179;-83
2021/08/24 06:46:16;;;;;;;2.23;1.00;;;23.60;99.90;;;;;;5080830;28;20657;-85
2021/08/24 06:48:41;;;;;;;2.10;1.30;;;24.70;99.90;;;;;;5075743;28;20582;-86
2021/08/24 06:51:09;;;;;;;2.80;1.03;;;25.70;99.90;;;;;;5075092;28;20241;-87
2021/08/24 06:53:35;;;;;;;3.33;1.40;;;26.80;99.90;;;;;;5075408;28;20174;-85
2021/08/24 06:56:03;;;;;;;2.60;1.47;;;27.70;99.90;;;;;;5052867;28;21030;-86
2021/08/24 06:58:29;;;;;;;2.00;1.00;;;28.60;99.90;;;;;;5058121;28;20583;-84
2021/08/24 07:00:55;;;;;;;2.50;1.33;;;29.40;99.90;;;;;;5037769;28;20679;-85
2021/08/24 07:03:20;;;;;;;1.90;1.10;;;30.10;99.90;;;;;;5036626;28;20600;-85
2021/08/24 07:05:49;;;;;;;1.60;1.20;;;30.80;99.90;;;;;;5052828;28;20226;-86
2021/08/24 07:08:15;;;;;;;2.30;1.10;;;31.50;99.90;;;;;;5049634;28;20189;-86
2021/08/24 07:10:41;;;;;;;2.13;1.50;;;32.10;99.90;;;;;;5037479;28;20605;-86
2021/08/24 07:13:08;;;;;;;2.83;1.43;;;32.60;99.90;;;;;;5037054;28;20600;-85
2021/08/24 07:15:35;;;;;;;1.93;1.20;;;33.20;99.90;;;;;;5036760;28;21161;-85
2021/08/24 07:18:02;;;;;;;2.33;1.47;;;33.60;99.90;;;;;;5058131;28;20587;-85
2021/08/24 07:20:28;;;;;;;3.10;1.50;;;34.10;99.90;;;;;;5046600;28;20661;-87
2021/08/24 07:22:59;;;;;;;2.10;1.20;;;34.50;99.90;;;;;;5054022;28;20612;-86
2021/08/24 07:25:26;;;;;;;2.70;1.53;;;34.90;99.00;;;;;;5032552;28;20580;-85
2021/08/24 07:27:53;;;;;;;1.80;1.30;;;35.30;97.80;;;;;;5039296;28;20593;-87
2021/08/24 07:30:19;;;;;;;4.90;1.20;;;35.60;96.00;;;;;;5048017;28;21255;-86
2021/08/24 07:32:44;;;;;;;3.70;1.10;;;35.90;94.40;;;;;;5034686;28;20631;-86
2021/08/24 07:35:12;;;;;;;2.00;1.07;;;36.20;93.40;;;;;;5016991;28;20177;-86
2021/08/24 07:37:37;;;;;;;1.77;1.00;;;36.50;91.50;;;;;;5034440;28;20205;-86
2021/08/24 07:40:05;;;;;;;3.20;0.93;;;36.70;90.30;;;;;;5034454;28;20564;-86
2021/08/24 07:42:31;;;;;;;2.70;1.00;;;37.00;87.80;;;;;;5034366;28;20247;-86
2021/08/24 07:44:57;;;;;;;1.47;0.80;;;37.20;84.30;;;;;;5034002;28;20959;-85
2021/08/24 07:47:22;;;;;;;1.67;0.90;;;37.40;81.00;;;;;;5016112;28;20236;-82
2021/08/24 07:49:50;;;;;;;1.43;0.87;;;37.60;78.70;;;;;;5033872;28;20174;-81
2021/08/24 07:52:16;;;;;;;1.63;0.70;;;37.60;72.40;;;;;;5016027;28;20205;-81
2021/08/24 07:54:42;;;;;;;1.47;0.67;;;37.80;70.70;;;;;;5033951;28;20556;-80
2021/08/24 07:57:08;;;;;;;1.83;0.70;;;38.00;71.00;;;;;;5033962;28;20212;-84
2021/08/24 07:59:33;;;;;;;2.10;1.00;;;38.10;67.50;;;;;;5016080;28;20177;-82
2021/08/24 08:01:59;;;;;;;1.20;0.67;;;38.20;66.40;;;;;;5032893;28;20176;-82
2021/08/24 08:04:27;;;;;;;1.70;0.97;;;38.40;64.40;;;;;;5031658;28;20580;-82
2021/08/24 08:06:53;;;;;;;2.20;1.00;;;38.50;62.40;;;;;;5032979;28;20938;-82
2021/08/24 08:09:21;;;;;;;1.60;0.83;;;38.60;57.50;;;;;;5033711;28;20576;-82
2021/08/24 08:11:51;;;;;;;1.50;0.80;;;38.60;58.70;;;;;;5015811;28;20726;-82
2021/08/24 08:14:17;;;;;;;1.40;0.70;;;38.70;57.50;;;;;;5033632;28;20626;-82
2021/08/24 08:16:44;;;;;;;1.40;0.60;;;38.90;57.60;;;;;;5032801;28;20604;-82
2021/08/24 08:19:10;;;;;;;1.67;0.70;;;39.00;56.60;;;;;;5015946;28;20648;-82
2021/08/24 08:21:38;;;;;;;1.70;0.70;;;39.10;56.30;;;;;;5033285;28;20936;-82
2021/08/24 08:24:04;;;;;;;2.70;0.77;;;39.20;54.30;;;;;;5033790;28;20573;-82
2021/08/24 08:26:34;;;;;;;2.10;1.00;;;39.30;54.20;;;;;;5041559;28;20635;-82
2021/08/24 08:29:03;;;;;;;1.30;0.60;;;39.30;51.50;;;;;;5052687;28;20584;-84
2021/08/24 08:31:30;;;;;;;1.60;0.90;;;39.20;51.80;;;;;;5035718;28;20718;-84
2021/08/24 08:33:55;;;;;;;1.27;0.60;;;39.10;49.70;;;;;;5052773;28;20576;-84
2021/08/24 08:36:21;;;;;;;1.97;0.83;;;39.10;49.90;;;;;;5052362;28;20621;-84
2021/08/24 08:38:47;;;;;;;1.40;0.90;;;39.00;47.20;;;;;;5045058;28;20237;-84
2021/08/24 08:41:37;;;;;;;1.50;0.70;;;38.80;46.30;;;;;;5052326;28;20786;-84
2021/08/24 08:44:09;;;;;;;1.30;0.80;;;38.70;45.60;;;;;;5045363;28;20165;-84
2021/08/24 08:46:49;;;;;;;5.00;1.00;;;38.50;44.40;;;;;;5034051;28;20631;-84
2021/08/24 08:49:51;;;;;;;1.83;0.83;;;38.50;46.10;;;;;;5052639;28;20585;-84
2021/08/24 08:52:45;;;;;;;1.50;0.80;;;38.50;47.10;;;;;;5034762;28;21260;-84
2021/08/24 08:55:40;;;;;;;1.43;0.90;;;38.80;47.70;;;;;;5046052;28;20568;-84
2021/08/24 08:58:43;;;;;;;1.30;0.80;;;39.00;47.60;;;;;;5052555;28;20623;-84
2021/08/24 09:01:24;;;;;;;1.70;0.73;;;39.20;47.30;;;;;;5052888;28;20587;-84
2021/08/24 09:04:03;;;;;;;1.70;0.80;;;39.10;38.80;;;;;;5052724;28;20579;-84
2021/08/24 09:06:28;;;;;;;1.77;0.90;;;39.20;43.30;;;;;;5034523;28;20599;-84
2021/08/24 09:08:58;;;;;;;2.17;1.20;;;39.20;43.60;;;;;;5052945;28;20576;-84
2021/08/24 09:11:36;;;;;;;1.77;1.53;;;39.20;43.00;;;;;;5018203;28;20631;-84
2021/08/24 09:14:20;;;;;;;2.77;1.00;;;38.90;40.50;;;;;;5052873;28;20578;-83
2021/08/24 09:16:56;;;;;;;1.40;0.90;;;38.80;41.50;;;;;;5052170;28;20599;-84
2021/08/24 09:19:46;;;;;;;1.40;0.97;;;38.80;41.40;;;;;;5052423;28;20642;-84
2021/08/24 09:22:16;;;;;;;1.70;1.00;;;39.00;42.60;;;;;;5052384;28;21146;-84
2021/08/24 09:24:42;;;;;;;1.63;1.00;;;39.20;40.70;;;;;;5051957;28;20575;-84
2021/08/24 09:27:46;;;;;;;2.10;1.43;;;39.20;41.60;;;;;;5052318;28;20630;-84
2021/08/24 09:30:13;;;;;;;2.53;0.90;;;39.20;35.80;;;;;;4989630;28;20644;-84
2021/08/24 09:32:39;;;;;;;2.00;1.57;;;38.90;38.90;;;;;;5051968;28;20634;-84
2021/08/24 09:35:08;;;;;;;2.00;1.07;;;38.90;39.70;;;;;;5052084;28;20568;-84
2021/08/24 09:37:38;;;;;;;1.53;1.17;;;39.00;39.70;;;;;;5051867;28;20540;-84
2021/08/24 09:40:06;;;;;;;2.80;1.20;;;39.00;38.70;;;;;;5017676;28;20564;-84
2021/08/24 09:42:42;;;;;;;1.70;1.10;;;39.00;39.20;;;;;;5052021;28;20570;-84
2021/08/24 09:45:20;;;;;;;2.00;1.30;;;38.80;37.40;;;;;;5052192;28;21005;-84
2021/08/24 09:48:02;;;;;;;1.80;1.17;;;38.80;38.50;;;;;;5050690;28;20587;-84
2021/08/24 09:50:32;;;;;;;3.07;1.13;;;38.80;37.90;;;;;;5051795;28;20587;-84
2021/08/24 09:52:59;;;;;;;3.20;1.43;;;38.80;38.10;;;;;;5014262;28;20676;-84
2021/08/24 09:55:27;;;;;;;4.27;1.60;;;38.70;37.10;;;;;;5050454;28;20587;-84
2021/08/24 09:58:04;;;;;;;2.53;1.50;;;38.70;37.30;;;;;;5032531;28;20639;-84
2021/08/24 10:00:52;;;;;;;2.10;1.37;;;38.80;37.40;;;;;;5031833;28;20943;-84
2021/08/24 10:03:29;;;;;;;5.03;1.77;;;38.80;36.30;;;;;;5031467;28;20651;-84
2021/08/24 10:06:15;;;;;;;1.83;1.47;;;38.70;34.10;;;;;;5012986;28;20611;-85
2021/08/24 10:08:43;;;;;;;2.57;1.93;;;38.80;36.50;;;;;;5032343;28;20579;-86
2021/08/24 10:11:14;;;;;;;78.80;12.03;;;38.70;36.40;;;;;;5013400;28;20624;-86
2021/08/24 10:13:42;;;;;;;7.27;2.50;;;38.80;35.90;;;;;;5039725;28;20576;-85
2021/08/24 10:16:18;;;;;;;3.00;1.90;;;38.90;35.80;;;;;;5051160;28;20595;-85
2021/08/24 10:18:48;;;;;;;2.90;2.10;;;39.00;35.30;;;;;;5051481;28;21058;-84
2021/08/24 10:21:29;;;;;;;3.17;1.90;;;39.00;34.70;;;;;;5053173;28;20571;-84
2021/08/24 10:23:58;;;;;;;62.27;12.17;;;38.90;34.30;;;;;;5033432;28;20674;-84
2021/08/24 10:26:34;;;;;;;5.70;2.77;;;38.70;34.10;;;;;;5050798;28;20627;-84
2021/08/24 10:29:08;;;;;;;2.17;1.50;;;38.60;34.60;;;;;;5051459;28;20694;-84
2021/08/24 10:31:39;;;;;;;2.50;1.87;;;38.50;34.00;;;;;;5050787;28;20623;-85
2021/08/24 10:34:29;;;;;;;3.00;1.73;;;38.50;33.40;;;;;;5051517;28;20572;-84
2021/08/24 10:37:23;;;;;;;2.80;1.70;;;38.30;32.00;;;;;;5051339;28;20599;-84
2021/08/24 10:39:52;;;;;;;2.53;1.40;;;38.20;34.40;;;;;;5051594;28;20564;-84
2021/08/24 10:42:23;;;;;;;4.53;1.50;;;38.00;32.60;;;;;;5052419;28;20574;-85
2021/08/24 10:44:51;;;;;;;13.80;3.03;;;37.50;32.80;;;;;;5051053;28;20567;-85
2021/08/24 10:47:18;;;;;;;2.23;1.70;;;37.00;33.70;;;;;;5033402;28;20599;-84
2021/08/24 10:49:43;;;;;;;2.70;1.57;;;36.60;34.00;;;;;;5051883;28;20578;-84
2021/08/24 10:52:20;;;;;;;2.30;1.30;;;36.30;33.60;;;;;;5033482;28;20296;-85
2021/08/24 10:55:12;;;;;;;2.60;1.93;;;36.10;33.20;;;;;;5050989;28;20514;-84
2021/08/24 10:57:50;;;;;;;2.30;1.27;;;36.00;34.90;;;;;;5033529;28;20952;-83
2021/08/24 11:00:49;;;;;;;1.67;1.07;;;36.10;35.10;;;;;;5033436;28;20982;-84
2021/08/24 11:03:27;;;;;;;2.20;1.40;;;36.00;33.70;;;;;;5050752;28;20618;-84
2021/08/24 11:05:55;;;;;;;1.60;1.07;;;35.90;34.30;;;;;;5049962;28;20598;-84
2021/08/24 11:08:44;;;;;;;1.80;1.03;;;36.00;34.90;;;;;;5050547;28;20570;-84
2021/08/24 11:11:31;;;;;;;1.93;1.10;;;35.90;34.60;;;;;;5016332;28;21402;-81
2021/08/24 11:14:26;;;;;;;2.50;1.30;;;35.90;34.60;;;;;;5023076;28;20699;-85
2021/08/24 11:17:16;;;;;;;2.93;1.50;;;35.80;33.70;;;;;;5018362;28;20615;-85
2021/08/24 11:20:04;;;;;;;4.57;1.47;;;35.70;34.60;;;;;;5051250;28;20567;-85
2021/08/24 11:23:05;;;;;;;3.10;1.47;;;35.60;34.90;;;;;;5052536;28;20598;-84
2021/08/24 11:25:52;;;;;;;2.30;1.30;;;35.10;31.90;;;;;;5053903;28;21147;-83
2021/08/24 11:28:38;;;;;;;1.70;1.17;;;34.50;33.00;;;;;;5054307;28;20585;-86
2021/08/24 11:31:10;;;;;;;1.97;1.10;;;34.40;35.10;;;;;;5038117;28;20635;-84
2021/08/24 11:34:01;;;;;;;1.60;1.10;;;34.40;35.20;;;;;;5016586;28;20582;-83
2021/08/24 11:36:43;;;;;;;2.63;1.00;;;34.20;34.60;;;;;;5034612;28;21156;-83
2021/08/24 11:39:17;;;;;;;1.70;1.00;;;34.00;35.40;;;;;;5016670;28;21133;-83
2021/08/24 11:41:49;;;;;;;1.93;1.00;;;34.00;35.40;;;;;;5033995;28;20976;-84
2021/08/24 11:44:21;;;;;;;1.97;1.17;;;34.00;35.90;;;;;;5034033;28;20671;-83
2021/08/24 11:46:57;;;;;;;2.67;1.13;;;34.00;35.40;;;;;;5038476;28;20706;-82
2021/08/24 11:49:29;;;;;;;1.80;1.10;;;33.90;35.90;;;;;;5036134;28;20569;-83
2021/08/24 11:52:18;;;;;;;2.73;1.60;;;34.00;35.90;;;;;;5036133;28;21175;-83
2021/08/24 11:55:18;;;;;;;3.20;1.10;;;33.90;35.50;;;;;;5053743;28;20556;-85
2021/08/24 11:58:00;;;;;;;1.80;1.00;;;33.90;35.70;;;;;;5022492;28;20579;-84
2021/08/24 12:00:27;;;;;;;1.90;1.20;;;33.70;35.30;;;;;;5053742;28;20607;-84
2021/08/24 12:02:52;;;;;;;1.57;0.93;;;33.60;35.80;;;;;;5053466;28;20561;-83
2021/08/24 12:05:23;;;;;;;1.80;0.80;;;33.40;36.00;;;;;;5051844;28;20929;-82
2021/08/24 12:08:09;;;;;;;1.40;0.90;;;33.30;36.10;;;;;;5052226;28;20234;-82
2021/08/24 12:11:01;;;;;;;2.40;1.40;;;33.10;36.40;;;;;;5052437;28;20625;-82
2021/08/24 12:13:40;;;;;;;2.00;1.23;;;32.90;35.30;;;;;;5053416;28;20586;-82
2021/08/24 12:16:21;;;;;;;3.23;1.30;;;32.80;36.30;;;;;;5052991;28;20638;-82
2021/08/24 12:19:30;;;;;;;2.20;1.50;;;32.50;36.20;;;;;;5035208;28;20567;-82
2021/08/24 12:22:00;;;;;;;1.97;1.00;;;32.20;36.30;;;;;;5021375;28;20676;-81
2021/08/24 12:24:26;;;;;;;2.57;1.50;;;31.80;36.80;;;;;;5032995;28;21233;-80
2021/08/24 12:26:54;;;;;;;1.90;1.10;;;31.60;37.10;;;;;;5032587;28;20715;-82
2021/08/24 12:29:34;;;;;;;1.80;1.00;;;31.40;37.60;;;;;;5032832;28;20256;-81
2021/08/24 12:32:03;;;;;;;4.30;1.50;;;31.20;37.90;;;;;;5032932;28;20620;-82
2021/08/24 12:34:35;;;;;;;2.80;1.30;;;31.10;38.20;;;;;;5031920;28;20596;-81
2021/08/24 12:37:03;;;;;;;1.93;1.10;;;30.90;38.60;;;;;;5015321;28;20706;-82
2021/08/24 12:39:51;;;;;;;2.43;1.50;;;30.70;38.60;;;;;;5032939;28;20960;-80
2021/08/24 12:42:29;;;;;;;1.40;0.80;;;30.60;38.90;;;;;;5015136;28;20572;-81
2021/08/24 12:44:57;;;;;;;2.17;1.20;;;30.50;39.40;;;;;;5032256;28;20572;-81
2021/08/24 12:47:28;;;;;;;1.90;1.30;;;30.50;39.20;;;;;;5033569;28;20598;-82
2021/08/24 12:49:55;;;;;;;1.70;1.17;;;30.40;39.30;;;;;;5033362;28;20572;-83
2021/08/24 12:52:42;;;;;;;1.83;1.10;;;30.20;39.60;;;;;;5015229;28;20631;-82
2021/08/24 12:55:08;;;;;;;2.47;1.00;;;30.00;39.40;;;;;;5032439;28;20568;-82
2021/08/24 12:57:37;;;;;;;1.67;1.03;;;29.70;39.70;;;;;;5032106;28;20695;-79
2021/08/24 13:00:24;;;;;;;2.63;0.90;;;29.40;39.70;;;;;;5032635;28;20166;-81
2021/08/24 13:03:10;;;;;;;1.70;1.10;;;29.10;40.90;;;;;;5032471;28;20624;-80
2021/08/24 13:05:36;;;;;;;2.80;1.33;;;28.90;40.80;;;;;;5031943;28;21201;-80
2021/08/24 13:08:26;;;;;;;2.00;1.10;;;28.60;40.10;;;;;;5032386;28;20948;-79